Time;durP1;ratioP1;P1;durP2;ratioP2;P2;SDS_P1;SDS_P2;PMS_P1;PMS_P2;Temp;Humidity;BMP_temperature;BMP_pressure;BME280_temperature;BME280_humidity;BME280_pressure;Samples;Min_cycle;Max_cycle;Signal;HPM_P1;HPM_P2
2023/04/29 00:00:11;;;;;;;3.53;0.93;;;;;;;8.84;100.00;95621.06;1018284;29;20028;-72
2023/04/29 00:00:41;;;;;;;3.97;1.00;;;;;;;8.84;100.00;95619.25;1026188;28;20512;-73
2023/04/29 00:01:12;;;;;;;1.15;1.05;;;;;;;8.86;100.00;95616.38;1024809;28;20286;-73
2023/04/29 00:01:43;;;;;;;1.42;1.10;;;;;;;8.88;100.00;95617.69;1025520;28;20716;-74
2023/04/29 00:02:13;;;;;;;1.48;1.00;;;;;;;8.86;100.00;95619.78;1023666;28;20026;-73
2023/04/29 00:02:44;;;;;;;1.23;0.90;;;;;;;8.86;100.00;95617.16;1026005;28;20022;-74
2023/04/29 00:03:14;;;;;;;2.03;0.95;;;;;;;8.89;100.00;95615.88;1022047;28;20027;-74
2023/04/29 00:03:45;;;;;;;1.63;1.10;;;;;;;8.88;100.00;95614.28;1029648;28;20034;-73
2023/04/29 00:04:15;;;;;;;1.27;1.13;;;;;;;8.89;100.00;95618.50;1028377;28;20090;-76
2023/04/29 00:04:46;;;;;;;1.70;0.90;;;;;;;8.91;100.00;95616.41;1026000;28;20026;-73
2023/04/29 00:05:16;;;;;;;2.60;1.20;;;;;;;8.86;100.00;95616.38;1018636;28;20051;-73
2023/04/29 00:05:47;;;;;;;2.55;1.48;;;;;;;8.89;100.00;95613.25;1021778;29;20046;-75
2023/04/29 00:06:17;;;;;;;1.25;1.15;;;;;;;8.90;100.00;95606.97;1020525;29;20026;-75
2023/04/29 00:06:48;;;;;;;1.45;1.15;;;;;;;8.93;100.00;95612.50;1022028;28;20020;-73
2023/04/29 00:07:19;;;;;;;1.70;1.23;;;;;;;8.93;100.00;95612.50;1022271;28;20032;-73
2023/04/29 00:07:49;;;;;;;1.75;1.33;;;;;;;8.92;100.00;95616.16;1027283;28;20823;-73
2023/04/29 00:08:20;;;;;;;2.17;1.20;;;;;;;8.94;100.00;95619.28;1030748;28;20461;-76
2023/04/29 00:08:51;;;;;;;1.10;1.00;;;;;;;8.94;100.00;95611.44;1029881;28;20018;-73
2023/04/29 00:09:21;;;;;;;1.33;1.23;;;;;;;8.93;100.00;95609.88;1034748;28;20089;-75
2023/04/29 00:09:52;;;;;;;1.30;1.20;;;;;;;8.96;100.00;95613.81;1030469;28;20264;-74
2023/04/29 00:10:22;;;;;;;3.10;1.42;;;;;;;8.95;100.00;95615.66;1030862;28;20027;-76
2023/04/29 00:10:53;;;;;;;1.63;1.23;;;;;;;8.96;100.00;95616.44;1030005;28;20022;-73
2023/04/29 00:11:23;;;;;;;1.33;1.08;;;;;;;8.92;100.00;95615.34;1032092;28;20050;-73
2023/04/29 00:11:54;;;;;;;2.08;1.48;;;;;;;8.93;100.00;95612.50;1030491;28;20097;-74
2023/04/29 00:12:25;;;;;;;1.40;1.20;;;;;;;8.94;100.00;95613.28;1030117;28;20646;-74
2023/04/29 00:12:55;;;;;;;2.35;0.93;;;;;;;8.90;100.00;95609.59;1033558;28;20026;-74
2023/04/29 00:13:26;;;;;;;1.70;1.20;;;;;;;8.93;100.00;95622.19;1030434;28;20031;-75
2023/04/29 00:13:56;;;;;;;1.75;1.38;;;;;;;8.93;100.00;95614.31;1030188;28;20026;-75
2023/04/29 00:14:26;;;;;;;1.40;1.20;;;;;;;8.96;100.00;95619.06;1025950;28;20023;-74
2023/04/29 00:14:57;;;;;;;2.15;1.42;;;;;;;8.96;100.00;95611.19;1030393;28;20459;-73
2023/04/29 00:15:27;;;;;;;1.40;1.30;;;;;;;8.92;100.00;95607.50;1030267;28;20420;-74
2023/04/29 00:15:58;;;;;;;2.08;1.60;;;;;;;8.95;100.00;95617.47;1030313;28;20026;-74
2023/04/29 00:16:28;;;;;;;4.63;1.20;;;;;;;8.94;100.00;95608.81;1022052;28;20521;-75
2023/04/29 00:16:59;;;;;;;2.45;1.50;;;;;;;8.88;100.00;95603.81;1022264;29;20031;-74
2023/04/29 00:17:29;;;;;;;1.95;1.60;;;;;;;8.88;100.00;95596.75;1018403;29;20757;-76
2023/04/29 00:18:00;;;;;;;1.33;1.23;;;;;;;8.94;100.00;95616.69;1014419;29;20020;-76
2023/04/29 00:18:31;;;;;;;1.58;1.48;;;;;;;8.95;100.00;95609.59;1017892;29;20105;-72
2023/04/29 00:19:02;;;;;;;1.42;1.30;;;;;;;8.91;100.00;95604.09;1017715;29;20086;-73
2023/04/29 00:19:32;;;;;;;1.75;1.40;;;;;;;8.97;100.00;95607.53;1018142;29;20020;-72
2023/04/29 00:20:03;;;;;;;2.10;1.33;;;;;;;8.97;100.00;95610.16;1018938;28;20267;-74
2023/04/29 00:20:34;;;;;;;2.65;1.67;;;;;;;8.95;100.00;95604.38;1022351;28;20027;-74
2023/04/29 00:21:04;;;;;;;3.85;1.65;;;;;;;8.97;100.00;95607.53;1025864;28;20034;-73
2023/04/29 00:21:35;;;;;;;1.55;1.35;;;;;;;8.96;100.00;95605.97;1024298;28;20159;-74
2023/04/29 00:22:06;;;;;;;2.00;1.80;;;;;;;8.97;100.00;95612.78;1022275;28;20027;-74
2023/04/29 00:22:36;;;;;;;1.95;1.55;;;;;;;8.97;100.00;95607.53;1022204;28;20474;-75
2023/04/29 00:23:07;;;;;;;1.55;1.40;;;;;;;8.86;100.00;95590.22;1026494;28;20022;-72
2023/04/29 00:23:37;;;;;;;1.92;1.58;;;;;;;8.97;100.00;95618.00;1030472;28;20499;-74
2023/04/29 00:24:08;;;;;;;3.60;1.38;;;;;;;8.92;100.00;95604.88;1025074;28;20069;-73
2023/04/29 00:24:38;;;;;;;2.78;1.90;;;;;;;8.93;100.00;95603.84;1021955;28;20520;-73
2023/04/29 00:25:09;;;;;;;2.22;1.58;;;;;;;8.98;100.00;95609.09;1015064;29;20146;-74
2023/04/29 00:25:40;;;;;;;2.00;1.75;;;;;;;8.97;100.00;95602.31;1011424;29;20119;-72
2023/04/29 00:26:10;;;;;;;5.80;1.90;;;;;;;9.00;100.00;95612.25;1022204;29;20584;-76
2023/04/29 00:26:41;;;;;;;2.22;1.70;;;;;;;9.00;100.00;95608.88;1023815;28;20074;-72
2023/04/29 00:27:11;;;;;;;3.58;1.88;;;;;;;9.00;100.00;95612.25;1026231;28;20036;-74
2023/04/29 00:27:41;;;;;;;2.45;1.80;;;;;;;9.00;100.00;95607.03;1018197;29;20094;-72
2023/04/29 00:28:12;;;;;;;2.42;1.92;;;;;;;9.01;100.00;95603.34;1022936;28;20023;-75
2023/04/29 00:28:42;;;;;;;2.15;1.95;;;;;;;9.03;100.00;95606.53;1025415;28;20027;-73
2023/04/29 00:29:13;;;;;;;2.83;2.05;;;;;;;9.08;100.00;95609.16;1021943;29;20062;-72
2023/04/29 00:29:43;;;;;;;2.35;2.15;;;;;;;8.96;100.00;95585.81;1022198;28;20550;-72
2023/04/29 00:30:14;;;;;;;2.88;2.38;;;;;;;9.03;100.00;95600.50;1022278;28;20028;-73
2023/04/29 00:30:45;;;;;;;2.85;2.20;;;;;;;9.06;100.00;95608.63;1022019;28;20023;-76
2023/04/29 00:31:15;;;;;;;2.00;1.90;;;;;;;9.09;100.00;95609.97;1026626;28;20392;-74
2023/04/29 00:31:46;;;;;;;3.28;2.38;;;;;;;9.12;100.00;95610.22;1026069;28;20027;-73
2023/04/29 00:32:16;;;;;;;4.00;2.78;;;;;;;9.12;100.00;95612.84;1026111;28;20038;-75
2023/04/29 00:32:47;;;;;;;2.45;2.00;;;;;;;9.15;100.00;95611.53;1026180;28;20054;-74
2023/04/29 00:33:18;;;;;;;2.65;2.00;;;;;;;9.14;100.00;95610.75;1025928;28;20078;-72
2023/04/29 00:33:49;;;;;;;3.22;2.45;;;;;;;9.16;100.00;95606.06;1030231;28;20090;-74
2023/04/29 00:34:19;;;;;;;3.22;2.17;;;;;;;9.16;100.00;95600.81;1026063;28;20078;-74
2023/04/29 00:34:50;;;;;;;2.55;2.35;;;;;;;9.21;100.00;95605.28;1022044;29;20030;-74
2023/04/29 00:35:20;;;;;;;3.65;2.67;;;;;;;9.21;100.00;95603.44;1022170;29;20434;-73
2023/04/29 00:35:51;;;;;;;4.50;2.67;;;;;;;9.19;100.00;95600.31;1022079;29;20298;-74
2023/04/29 00:36:21;;;;;;;3.28;2.65;;;;;;;9.24;100.00;95602.16;1018899;28;20047;-73
2023/04/29 00:36:52;;;;;;;2.65;2.28;;;;;;;9.25;100.00;95601.09;1031706;28;20962;-72
2023/04/29 00:37:22;;;;;;;4.47;2.50;;;;;;;9.25;100.00;95603.72;1025953;28;20145;-73
2023/04/29 00:37:53;;;;;;;4.18;2.97;;;;;;;9.26;100.00;95604.53;1022430;28;20540;-73
2023/04/29 00:38:23;;;;;;;5.18;2.72;;;;;;;9.27;100.00;95606.09;1025723;28;20026;-73
2023/04/29 00:38:54;;;;;;;4.05;2.70;;;;;;;9.23;100.00;95599.78;1021417;28;20062;-73
2023/04/29 00:39:24;;;;;;;4.03;2.80;;;;;;;9.27;100.00;95600.84;1026131;28;20019;-75
2023/04/29 00:39:55;;;;;;;3.40;2.80;;;;;;;9.26;100.00;95599.28;1022072;29;20030;-75
2023/04/29 00:40:27;;;;;;;3.10;2.75;;;;;;;9.24;100.00;95598.75;1019404;29;20028;-73
2023/04/29 00:40:57;;;;;;;3.42;2.42;;;;;;;9.23;100.00;95597.97;1018368;29;20664;-74
2023/04/29 00:41:28;;;;;;;6.10;3.13;;;;;;;9.27;100.00;95606.09;1014536;29;20328;-73
2023/04/29 00:41:58;;;;;;;3.50;3.00;;;;;;;9.25;100.00;95597.69;1014365;29;20031;-74
2023/04/29 00:42:29;;;;;;;3.65;2.90;;;;;;;9.25;100.00;95597.69;1018157;29;20749;-74
2023/04/29 00:42:59;;;;;;;2.95;2.53;;;;;;;9.30;100.00;95600.34;1025696;28;20015;-74
2023/04/29 00:43:30;;;;;;;5.30;2.97;;;;;;;9.31;100.00;95604.53;1030188;28;20026;-73
2023/04/29 00:44:00;;;;;;;3.33;3.03;;;;;;;9.32;100.00;95601.66;1026082;28;20054;-73
2023/04/29 00:44:31;;;;;;;4.53;3.17;;;;;;;9.35;100.00;95600.34;1026343;28;20461;-75
2023/04/29 00:45:02;;;;;;;6.00;3.00;;;;;;;9.36;100.00;95605.34;1028199;28;20029;-74
2023/04/29 00:45:32;;;;;;;4.47;2.85;;;;;;;9.37;100.00;95603.50;1022321;28;20023;-75
2023/04/29 00:46:03;;;;;;;4.57;3.20;;;;;;;9.41;100.00;95601.94;1024230;28;20262;-74
2023/04/29 00:46:33;;;;;;;3.38;2.88;;;;;;;9.38;100.00;95605.06;1023025;28;20540;-74
2023/04/29 00:47:04;;;;;;;4.03;2.90;;;;;;;9.40;100.00;95605.59;1017994;29;20036;-73
2023/04/29 00:47:35;;;;;;;4.78;3.35;;;;;;;9.43;100.00;95605.09;1019981;29;20083;-75
2023/04/29 00:48:05;;;;;;;4.15;3.13;;;;;;;9.44;100.00;95604.81;1023087;28;20031;-74
2023/04/29 00:48:35;;;;;;;6.03;3.38;;;;;;;9.45;100.00;95605.59;1021731;28;20106;-74
2023/04/29 00:49:07;;;;;;;4.80;3.10;;;;;;;9.46;100.00;95604.56;1025970;28;20617;-72
2023/04/29 00:49:40;;;;;;;3.22;2.85;;;;;;;9.47;100.00;95611.38;1019623;29;20513;-74
2023/04/29 00:50:10;;;;;;;4.38;3.33;;;;;;;9.46;100.00;95604.56;1014772;29;20256;-72
2023/04/29 00:50:41;;;;;;;4.25;3.00;;;;;;;9.44;100.00;95601.41;1016788;29;20271;-74
2023/04/29 00:51:11;;;;;;;3.65;3.20;;;;;;;9.47;100.00;95606.13;1015366;28;20031;-74
2023/04/29 00:51:42;;;;;;;3.67;2.92;;;;;;;9.43;100.00;95603.25;1018209;29;20512;-72
2023/04/29 00:52:13;;;;;;;4.85;3.83;;;;;;;9.39;100.00;95598.81;1017998;29;20022;-73
2023/04/29 00:52:43;;;;;;;5.95;3.55;;;;;;;9.38;100.00;95603.22;1010691;29;20024;-74
2023/04/29 00:53:14;;;;;;;6.20;3.50;;;;;;;9.44;100.00;95609.28;1013512;29;20616;-73
2023/04/29 00:53:44;;;;;;;3.90;3.35;;;;;;;9.39;100.00;95611.88;1013943;29;20030;-72
2023/04/29 00:54:14;;;;;;;4.43;3.20;;;;;;;9.42;100.00;95612.16;1018481;29;20030;-74
2023/04/29 00:54:45;;;;;;;4.78;3.10;;;;;;;9.34;100.00;95596.94;1024201;28;20019;-75
2023/04/29 00:55:15;;;;;;;4.38;3.10;;;;;;;9.35;100.00;95598.50;1022044;28;20023;-74
2023/04/29 00:55:47;;;;;;;3.65;3.13;;;;;;;9.39;100.00;95609.28;1022772;28;20741;-74
2023/04/29 00:56:19;;;;;;;5.07;3.25;;;;;;;9.38;100.00;95610.31;1026339;28;20031;-74
2023/04/29 00:56:50;;;;;;;4.00;3.30;;;;;;;9.34;100.00;95604.00;1026198;28;20799;-74
2023/04/29 00:57:20;;;;;;;3.53;3.20;;;;;;;9.33;100.00;95605.06;1022054;28;20255;-72
2023/04/29 00:57:51;;;;;;;4.00;3.45;;;;;;;9.37;100.00;95614.75;1025494;28;20014;-76
2023/04/29 00:58:22;;;;;;;4.47;3.25;;;;;;;9.36;100.00;95605.34;1026426;28;20019;-73
2023/04/29 00:58:53;;;;;;;6.85;3.88;;;;;;;9.32;100.00;95603.47;1025365;28;20103;-76
2023/04/29 00:59:30;;;;;;;6.13;3.75;;;;;;;9.31;100.00;95601.91;1024682;28;20342;-73
2023/04/29 01:00:01;;;;;;;3.80;3.08;;;;;;;9.32;100.00;95608.69;1021944;28;20635;-73
2023/04/29 01:00:32;;;;;;;7.68;3.45;;;;;;;9.34;100.00;95606.63;1022016;29;20277;-71
2023/04/29 01:01:02;;;;;;;5.82;3.38;;;;;;;9.34;100.00;95610.03;1025816;28;20018;-73
2023/04/29 01:01:34;;;;;;;3.88;3.35;;;;;;;9.32;100.00;95606.91;1027207;28;20027;-73
2023/04/29 01:02:04;;;;;;;5.57;3.33;;;;;;;9.32;100.00;95606.09;1026048;28;20013;-73
2023/04/29 01:02:35;;;;;;;5.00;3.30;;;;;;;9.34;100.00;95612.66;1030138;28;20273;-75
2023/04/29 01:03:05;;;;;;;5.45;3.33;;;;;;;9.28;100.00;95605.81;1015663;29;20024;-75
2023/04/29 01:03:36;;;;;;;3.85;3.17;;;;;;;9.31;100.00;95607.91;1014639;29;20024;-77
2023/04/29 01:04:06;;;;;;;4.85;3.70;;;;;;;9.22;100.00;95588.50;1013960;29;20039;-76
2023/04/29 01:04:37;;;;;;;4.18;3.65;;;;;;;9.34;100.00;95617.09;1015805;29;20016;-74
2023/04/29 01:05:07;;;;;;;5.13;4.10;;;;;;;9.32;100.00;95613.94;1018314;29;20096;-75
2023/04/29 01:05:38;;;;;;;5.35;4.00;;;;;;;9.28;100.00;95610.25;1022151;29;20031;-73
2023/04/29 01:06:28;;;;;;;4.57;3.60;;;;;;;9.23;100.00;95597.97;1018921;29;20035;-73
2023/04/29 01:07:26;;;;;;;5.15;3.50;;;;;;;9.28;100.00;95610.25;1016870;29;20111;-74
2023/04/29 01:08:21;;;;;;;3.47;3.10;;;;;;;9.25;100.00;95608.16;1026664;28;20051;-74
2023/04/29 01:09:04;;;;;;;3.65;2.85;;;;;;;9.24;100.00;95617.06;1025008;28;20312;-75
2023/04/29 01:09:42;;;;;;;5.22;3.17;;;;;;;9.23;100.00;95620.75;1021997;29;20270;-74
2023/04/29 01:10:26;;;;;;;4.50;3.72;;;;;;;9.25;100.00;95618.63;1018067;29;20270;-74
2023/04/29 01:11:04;;;;;;;4.53;3.63;;;;;;;9.18;100.00;95614.41;1021721;29;20263;-73
2023/04/29 01:11:37;;;;;;;4.28;3.20;;;;;;;9.15;100.00;95614.97;1021829;29;20262;-72
2023/04/29 01:12:29;;;;;;;5.57;3.60;;;;;;;9.16;100.00;95619.13;1022155;29;20270;-73
2023/04/29 01:13:13;;;;;;;6.57;3.65;;;;;;;9.13;100.00;95611.78;1018933;28;20276;-75
2023/04/29 01:13:50;;;;;;;5.03;3.30;;;;;;;9.10;100.00;95617.53;1015671;29;20268;-74
2023/04/29 01:14:21;;;;;;;5.32;3.90;;;;;;;9.11;100.00;95613.88;1026017;28;20277;-73
2023/04/29 01:15:24;;;;;;;4.30;3.53;;;;;;;9.11;100.00;95624.34;1027054;28;21204;-73
2023/04/29 01:16:06;;;;;;;4.45;3.53;;;;;;;9.04;100.00;95608.09;1013540;29;20130;-74
2023/04/29 01:16:40;;;;;;;4.90;3.88;;;;;;;9.11;100.00;95615.72;1024609;28;20285;-74
2023/04/29 01:17:14;;;;;;;4.68;3.75;;;;;;;9.08;100.00;95616.22;1021966;29;20369;-73
2023/04/29 01:17:55;;;;;;;4.43;3.53;;;;;;;9.04;100.00;95613.31;1018113;29;21195;-75
2023/04/29 01:18:33;;;;;;;4.13;3.47;;;;;;;9.07;100.00;95607.56;1017803;29;20267;-74
2023/04/29 01:19:27;;;;;;;5.32;3.83;;;;;;;9.14;100.00;95613.34;1014033;29;20268;-74
2023/04/29 01:19:57;;;;;;;5.85;4.15;;;;;;;9.13;100.00;95616.25;1018276;28;20678;-74
2023/04/29 01:20:28;;;;;;;6.60;3.97;;;;;;;9.08;100.00;95603.13;1021849;29;20275;-74
2023/04/29 01:20:58;;;;;;;4.40;3.70;;;;;;;9.12;100.00;95617.28;1025901;28;20019;-73
2023/04/29 01:21:30;;;;;;;5.35;4.32;;;;;;;9.10;100.00;95614.91;1026346;28;20095;-74
2023/04/29 01:22:01;;;;;;;5.80;4.75;;;;;;;9.10;100.00;95612.31;1018128;29;20016;-74
2023/04/29 01:22:31;;;;;;;5.82;4.50;;;;;;;9.06;100.00;95616.47;1025165;28;20266;-74
2023/04/29 01:23:02;;;;;;;6.13;4.40;;;;;;;9.09;100.00;95615.19;1022415;28;20090;-76
2023/04/29 01:23:33;;;;;;;7.38;4.80;;;;;;;9.10;100.00;95614.13;1017825;29;20020;-75
2023/04/29 01:24:03;;;;;;;6.60;4.40;;;;;;;9.11;100.00;95613.88;1018253;29;20267;-76
2023/04/29 01:24:34;;;;;;;6.40;4.82;;;;;;;9.13;100.00;95617.03;1014370;29;20024;-74
2023/04/29 01:25:05;;;;;;;6.85;4.97;;;;;;;9.12;100.00;95618.09;1016674;29;20493;-74
2023/04/29 01:25:37;;;;;;;5.40;4.32;;;;;;;9.11;100.00;95613.88;1018228;29;20024;-75
2023/04/29 01:26:07;;;;;;;8.30;4.65;;;;;;;9.13;100.00;95618.88;1014359;29;20301;-74
2023/04/29 01:26:38;;;;;;;7.10;4.85;;;;;;;9.10;100.00;95614.91;1018616;28;21000;-74
2023/04/29 01:27:26;;;;;;;8.02;5.00;;;;;;;9.13;100.00;95622.25;1018211;29;20076;-76
2023/04/29 01:28:02;;;;;;;7.03;4.95;;;;;;;9.14;100.00;95623.84;1017955;29;20035;-74
2023/04/29 01:28:53;;;;;;;5.68;4.30;;;;;;;9.16;100.00;95626.22;1024188;28;20321;-73
2023/04/29 01:29:57;;;;;;;6.93;4.47;;;;;;;9.19;100.00;95610.78;1025289;28;20278;-75
2023/04/29 01:30:34;;;;;;;6.82;4.13;;;;;;;9.21;100.00;95620.97;1022015;29;20243;-72
2023/04/29 01:31:14;;;;;;;7.35;4.55;;;;;;;9.14;100.00;95609.97;1019265;29;20672;-74
2023/04/29 01:31:57;;;;;;;6.55;4.63;;;;;;;9.15;100.00;95620.19;1010247;29;20268;-73
2023/04/29 01:32:58;;;;;;;7.20;4.55;;;;;;;9.17;100.00;95618.09;1016688;29;20172;-72
2023/04/29 01:33:43;;;;;;;7.45;4.30;;;;;;;9.23;100.00;95620.75;996632;29;20758;-73
2023/04/29 01:34:19;;;;;;;7.88;4.70;;;;;;;9.26;100.00;95622.84;1001977;29;20025;-70
2023/04/29 01:35:04;;;;;;;9.82;4.95;;;;;;;9.20;100.00;95608.94;1004541;29;20251;-73
2023/04/29 01:35:45;;;;;;;6.85;5.13;;;;;;;9.24;100.00;95619.69;1020359;29;20273;-73
2023/04/29 01:36:44;;;;;;;7.70;4.72;;;;;;;9.23;100.00;95625.97;1017825;29;20267;-73
2023/04/29 01:37:41;;;;;;;7.45;4.68;;;;;;;9.21;100.00;95616.53;1021986;29;20989;-73
2023/04/29 01:38:38;;;;;;;5.97;4.72;;;;;;;9.19;100.00;95613.41;1022287;28;20253;-74
2023/04/29 01:39:25;;;;;;;8.20;5.82;;;;;;;9.23;100.00;95620.75;1021185;28;20279;-74
2023/04/29 01:39:55;;;;;;;8.05;5.00;;;;;;;9.20;100.00;95614.97;1021690;29;20335;-70
2023/04/29 01:40:30;;;;;;;10.10;5.22;;;;;;;9.19;100.00;95616.00;1021953;29;20839;-73
2023/04/29 01:41:22;;;;;;;7.43;5.07;;;;;;;9.19;100.00;95615.22;1021840;28;20054;-73
2023/04/29 01:41:57;;;;;;;9.05;4.85;;;;;;;9.14;100.00;95604.72;1021400;29;20263;-75
2023/04/29 01:42:35;;;;;;;6.40;5.10;;;;;;;9.19;100.00;95620.47;1017869;29;20350;-73
2023/04/29 01:43:08;;;;;;;6.82;4.97;;;;;;;9.17;100.00;95612.84;1017930;29;20267;-75
2023/04/29 01:43:39;;;;;;;8.00;4.82;;;;;;;9.19;100.00;95615.22;1020632;29;20267;-76
2023/04/29 01:44:14;;;;;;;9.07;6.18;;;;;;;9.18;100.00;95619.66;1014080;29;20271;-73
2023/04/29 01:44:44;;;;;;;7.97;5.13;;;;;;;9.12;100.00;95614.66;1018349;29;20458;-74
2023/04/29 01:45:17;;;;;;;7.65;5.53;;;;;;;9.10;100.00;95601.06;1022591;28;20251;-74
2023/04/29 01:45:50;;;;;;;5.75;4.70;;;;;;;9.20;100.00;95614.97;1017975;29;20016;-74
2023/04/29 01:46:20;;;;;;;7.32;5.70;;;;;;;9.18;100.00;95619.66;1021709;29;20263;-74
2023/04/29 01:46:52;;;;;;;8.52;5.40;;;;;;;9.14;100.00;95605.50;1017996;29;20267;-74
2023/04/29 01:47:23;;;;;;;8.90;6.18;;;;;;;9.24;100.00;95617.06;1018222;29;20547;-74
2023/04/29 01:47:55;;;;;;;9.80;6.18;;;;;;;9.24;100.00;95617.06;1020001;29;20311;-72
2023/04/29 01:48:25;;;;;;;7.57;5.55;;;;;;;9.24;100.00;95622.31;1021895;29;20038;-73
2023/04/29 01:48:56;;;;;;;9.18;6.07;;;;;;;9.25;100.00;95618.63;1025303;28;20258;-71
2023/04/29 01:49:27;;;;;;;8.65;6.15;;;;;;;9.27;100.00;95621.78;1025841;28;20018;-73
2023/04/29 01:49:57;;;;;;;11.02;5.90;;;;;;;9.25;100.00;95623.88;1022110;28;20114;-74
2023/04/29 01:50:28;;;;;;;7.20;6.18;;;;;;;9.23;100.00;95620.75;1030297;28;20270;-72
2023/04/29 01:50:58;;;;;;;8.85;5.68;;;;;;;9.26;100.00;95609.75;1021619;29;20086;-73
2023/04/29 01:51:30;;;;;;;10.38;5.63;;;;;;;9.21;100.00;95618.34;1018375;29;20599;-77
2023/04/29 01:52:00;;;;;;;8.80;5.55;;;;;;;9.21;100.00;95618.34;1013867;29;20810;-74
2023/04/29 01:52:31;;;;;;;8.23;5.35;;;;;;;9.22;100.00;95619.94;1010247;29;20265;-74
2023/04/29 01:53:01;;;;;;;8.85;5.95;;;;;;;9.21;100.00;95618.34;1013138;29;20039;-75
2023/04/29 01:53:32;;;;;;;10.88;6.20;;;;;;;9.24;100.00;95619.69;1018470;28;20057;-72
2023/04/29 01:54:04;;;;;;;8.27;5.63;;;;;;;9.28;100.00;95620.75;1021927;28;20779;-72
2023/04/29 01:54:37;;;;;;;8.05;5.75;;;;;;;9.25;100.00;95608.16;1021939;28;20015;-73
2023/04/29 01:55:08;;;;;;;10.63;6.40;;;;;;;9.33;100.00;95615.53;1021982;29;20729;-72
2023/04/29 01:55:38;;;;;;;10.68;6.70;;;;;;;9.33;100.00;95613.69;1025130;28;20258;-73
2023/04/29 01:56:09;;;;;;;8.38;6.20;;;;;;;9.27;100.00;95600.84;1021670;29;20520;-76
2023/04/29 01:56:39;;;;;;;8.75;6.15;;;;;;;9.30;100.00;95614.22;1015138;29;20024;-73
2023/04/29 01:57:10;;;;;;;10.13;6.90;;;;;;;9.25;100.00;95598.47;1018469;29;20019;-74
2023/04/29 01:57:40;;;;;;;10.40;6.35;;;;;;;9.31;100.00;95615.00;1027120;28;20033;-74
2023/04/29 01:58:11;;;;;;;9.45;6.03;;;;;;;9.33;100.00;95610.31;1022292;29;20020;-74
2023/04/29 01:58:41;;;;;;;9.38;6.13;;;;;;;9.22;100.00;95593.75;1021734;29;20023;-74
2023/04/29 01:59:11;;;;;;;8.77;6.18;;;;;;;9.31;100.00;95604.53;1022061;29;20024;-73
2023/04/29 01:59:42;;;;;;;8.15;6.35;;;;;;;9.31;100.00;95615.78;1022039;28;20070;-72
2023/04/29 02:00:12;;;;;;;7.68;5.95;;;;;;;9.27;100.00;95606.88;1022054;28;20028;-74
2023/04/29 02:00:43;;;;;;;10.15;6.47;;;;;;;9.29;100.00;95609.22;1021204;29;20015;-74
2023/04/29 02:01:14;;;;;;;8.15;6.00;;;;;;;9.29;100.00;95615.25;1017931;29;20020;-74
2023/04/29 02:01:44;;;;;;;8.57;6.03;;;;;;;9.30;100.00;95610.81;1025820;28;20019;-71
2023/04/29 02:02:16;;;;;;;8.80;6.35;;;;;;;9.29;100.00;95611.84;1026049;28;20453;-73
2023/04/29 02:02:46;;;;;;;7.70;5.90;;;;;;;9.32;100.00;95616.56;1025658;28;20095;-74
2023/04/29 02:03:17;;;;;;;9.82;6.20;;;;;;;9.29;100.00;95611.84;1022213;28;20274;-74
2023/04/29 02:03:47;;;;;;;9.82;6.40;;;;;;;9.33;100.00;95618.94;1026142;28;20401;-74
2023/04/29 02:04:18;;;;;;;7.68;5.85;;;;;;;9.33;100.00;95616.31;1021946;29;20019;-72
2023/04/29 02:04:49;;;;;;;9.88;6.35;;;;;;;9.36;100.00;95615.03;1021818;29;20023;-73
2023/04/29 02:05:19;;;;;;;9.68;6.30;;;;;;;9.37;100.00;95611.34;1018449;29;20203;-76
2023/04/29 02:05:50;;;;;;;10.80;6.50;;;;;;;9.39;100.00;95611.88;1018199;29;20272;-73
2023/04/29 02:06:20;;;;;;;9.05;6.25;;;;;;;9.40;100.00;95616.06;1022133;28;20614;-74
2023/04/29 02:06:51;;;;;;;8.25;6.40;;;;;;;9.37;100.00;95613.97;1022181;28;20027;-75
2023/04/29 02:07:22;;;;;;;8.88;6.32;;;;;;;9.42;100.00;95608.72;1026048;28;20497;-71
2023/04/29 02:07:52;;;;;;;12.30;7.25;;;;;;;9.40;100.00;95610.84;1026073;28;20030;-71
2023/04/29 02:08:23;;;;;;;8.52;6.10;;;;;;;9.41;100.00;95615.03;1026113;28;20030;-72
2023/04/29 02:08:53;;;;;;;8.02;6.35;;;;;;;9.41;100.00;95609.78;1029320;28;20026;-72
2023/04/29 02:09:24;;;;;;;8.38;6.28;;;;;;;9.31;100.00;95601.91;1030112;28;20111;-74
2023/04/29 02:09:54;;;;;;;9.25;6.28;;;;;;;9.36;100.00;95609.78;1023888;28;20398;-73
2023/04/29 02:10:25;;;;;;;7.85;5.80;;;;;;;9.40;100.00;95608.22;1022244;28;20019;-73
2023/04/29 02:10:56;;;;;;;11.18;7.07;;;;;;;9.35;100.00;95603.72;1025362;28;20110;-73
2023/04/29 02:11:27;;;;;;;10.63;7.00;;;;;;;9.41;100.00;95609.78;1023726;28;20027;-73
2023/04/29 02:11:57;;;;;;;8.15;5.95;;;;;;;9.38;100.00;95603.22;1030263;28;20250;-72
2023/04/29 02:12:27;;;;;;;9.60;6.43;;;;;;;9.42;100.00;95608.72;1020798;29;20646;-75
2023/04/29 02:12:58;;;;;;;8.82;6.10;;;;;;;9.46;100.00;95615.06;1013761;29;20035;-73
2023/04/29 02:13:28;;;;;;;10.07;6.75;;;;;;;9.39;100.00;95609.28;1020333;28;20496;-72
2023/04/29 02:13:59;;;;;;;9.55;6.68;;;;;;;9.45;100.00;95613.47;1022009;28;20023;-74
2023/04/29 02:14:30;;;;;;;8.85;5.78;;;;;;;9.47;100.00;95613.22;1025880;28;20081;-73
2023/04/29 02:15:01;;;;;;;9.68;6.53;;;;;;;9.46;100.00;95612.44;1025799;28;20432;-73
2023/04/29 02:15:31;;;;;;;9.07;6.65;;;;;;;9.45;100.00;95614.25;1025831;28;20306;-73
2023/04/29 02:16:12;;;;;;;10.57;6.53;;;;;;;9.36;100.00;95600.09;1022121;29;20020;-74
2023/04/29 02:16:45;;;;;;;7.22;5.63;;;;;;;9.34;100.00;95602.16;1016105;29;20458;-73
2023/04/29 02:17:16;;;;;;;7.80;5.50;;;;;;;9.37;100.00;95603.50;1016279;29;20292;-75
2023/04/29 02:17:46;;;;;;;10.18;6.18;;;;;;;9.41;100.00;95613.19;1017673;29;20268;-73
2023/04/29 02:18:17;;;;;;;10.88;6.50;;;;;;;9.44;100.00;95604.03;1017740;29;20442;-73
2023/04/29 02:18:47;;;;;;;8.15;5.63;;;;;;;9.46;100.00;95612.44;1020608;29;20030;-73
2023/04/29 02:19:17;;;;;;;9.60;6.38;;;;;;;9.44;100.00;95611.88;1025665;28;20022;-73
2023/04/29 02:19:48;;;;;;;9.50;6.13;;;;;;;9.45;100.00;95608.22;1023180;28;20082;-73
2023/04/29 02:20:19;;;;;;;10.32;6.43;;;;;;;9.48;100.00;95610.31;1021857;28;20036;-74
2023/04/29 02:20:49;;;;;;;8.52;6.10;;;;;;;9.48;100.00;95612.16;1021799;29;20796;-73
2023/04/29 02:21:20;;;;;;;9.23;6.18;;;;;;;9.45;100.00;95608.22;1022251;28;20094;-72
2023/04/29 02:21:50;;;;;;;8.45;6.63;;;;;;;9.46;100.00;95609.81;1017965;28;20020;-71
2023/04/29 02:22:21;;;;;;;8.23;6.47;;;;;;;9.51;100.00;95611.66;1026570;28;20054;-73
2023/04/29 02:22:51;;;;;;;10.25;6.68;;;;;;;9.42;100.00;95600.88;1030980;28;20049;-73
2023/04/29 02:23:22;;;;;;;8.68;5.85;;;;;;;9.48;100.00;95612.16;1017493;29;20054;-73
2023/04/29 02:23:53;;;;;;;8.60;6.40;;;;;;;9.46;100.00;95609.81;1006659;29;20032;-73
2023/04/29 02:24:23;;;;;;;8.43;6.13;;;;;;;9.47;100.00;95616.63;1010978;29;20056;-72
2023/04/29 02:24:54;;;;;;;9.13;6.07;;;;;;;9.45;100.00;95609.00;1014809;28;20268;-74
2023/04/29 02:25:25;;;;;;;11.68;6.63;;;;;;;9.46;100.00;95615.06;1026690;28;20082;-72
2023/04/29 02:25:55;;;;;;;8.30;6.38;;;;;;;9.50;100.00;95610.09;1030789;28;20522;-73
2023/04/29 02:26:26;;;;;;;9.98;6.75;;;;;;;9.46;100.00;95615.06;1018918;29;20027;-72
2023/04/29 02:26:57;;;;;;;9.60;6.38;;;;;;;9.48;100.00;95615.56;1022810;28;20583;-73
2023/04/29 02:27:28;;;;;;;9.43;6.47;;;;;;;9.41;100.00;95602.72;1023024;28;20549;-74
2023/04/29 02:27:58;;;;;;;10.18;7.40;;;;;;;9.47;100.00;95614.00;1023222;28;20326;-72
2023/04/29 02:28:29;;;;;;;9.68;6.30;;;;;;;9.49;100.00;95618.97;1026814;28;20027;-74
2023/04/29 02:28:59;;;;;;;12.50;6.32;;;;;;;9.42;100.00;95604.31;1017978;29;20035;-73
2023/04/29 02:29:30;;;;;;;10.57;6.93;;;;;;;9.43;100.00;95610.31;1022585;29;20035;-73
2023/04/29 02:30:01;;;;;;;9.02;6.18;;;;;;;9.50;100.00;95616.09;1026743;28;20106;-72
2023/04/29 02:30:31;;;;;;;7.47;5.75;;;;;;;9.49;100.00;95617.16;1026582;28;20035;-73
2023/04/29 02:31:02;;;;;;;8.50;6.55;;;;;;;9.49;100.00;95618.97;1018898;29;20032;-73
2023/04/29 02:31:32;;;;;;;10.35;6.10;;;;;;;9.39;100.00;95604.03;1018879;29;20047;-72
2023/04/29 02:32:03;;;;;;;8.23;6.07;;;;;;;9.48;100.00;95618.19;1022554;29;20031;-72
2023/04/29 02:32:34;;;;;;;8.60;6.78;;;;;;;9.50;100.00;95621.34;1024773;28;20173;-73
2023/04/29 02:33:04;;;;;;;9.35;6.45;;;;;;;9.50;100.00;95617.94;1026782;28;20106;-73
2023/04/29 02:33:35;;;;;;;8.95;6.13;;;;;;;9.51;100.00;95624.75;1028510;28;20901;-72